Time;durP1;ratioP1;P1;durP2;ratioP2;P2;SDS_P1;SDS_P2;PMS_P1;PMS_P2;Temp;Humidity;BMP_temperature;BMP_pressure;BME280_temperature;BME280_humidity;BME280_pressure;Samples;Min_cycle;Max_cycle;Signal;HPM_P1;HPM_P2
2022/10/13 00:02:03;;;;;;;29.27;13.73;;;;;;;10.18;100.00;99223.03;4856090;29;20371;-62
2022/10/13 00:04:31;;;;;;;20.50;12.00;;;;;;;10.23;100.00;99214.81;4854517;29;20276;-62
2022/10/13 00:06:57;;;;;;;19.20;12.07;;;;;;;10.25;100.00;99208.50;4849936;29;20295;-62
2022/10/13 00:09:25;;;;;;;27.67;13.13;;;;;;;10.35;100.00;99224.19;4853927;29;21054;-62
2022/10/13 00:11:57;;;;;;;26.03;12.77;;;;;;;10.50;100.00;99221.22;4860374;29;20239;-63
2022/10/13 00:14:23;;;;;;;25.33;12.93;;;;;;;10.58;100.00;99214.34;4856621;29;20291;-64
2022/10/13 00:16:50;;;;;;;25.23;13.00;;;;;;;10.56;100.00;99213.66;4860073;29;20283;-62
2022/10/13 00:19:18;;;;;;;17.63;11.90;;;;;;;10.56;100.00;99213.66;4846260;29;20245;-62
2022/10/13 00:21:44;;;;;;;21.53;11.23;;;;;;;10.55;100.00;99211.19;4852702;29;20897;-62
2022/10/13 00:24:11;;;;;;;19.33;11.33;;;;;;;10.55;100.00;99208.59;4850412;29;20248;-62
2022/10/13 00:26:38;;;;;;;24.80;12.70;;;;;;;10.54;100.00;99201.72;4856226;29;20315;-62
2022/10/13 00:29:07;;;;;;;24.83;13.07;;;;;;;10.46;100.00;99210.22;4856602;29;20238;-62
2022/10/13 00:31:33;;;;;;;20.07;11.40;;;;;;;10.44;100.00;99205.13;4856360;29;20276;-62
2022/10/13 00:34:02;;;;;;;29.13;13.37;;;;;;;10.55;100.00;99209.41;4860671;29;20296;-63
2022/10/13 00:36:31;;;;;;;19.40;11.93;;;;;;;10.50;100.00;99201.16;4849858;29;20656;-62
2022/10/13 00:38:58;;;;;;;20.97;11.00;;;;;;;10.43;100.00;99203.50;4855529;29;20700;-63
2022/10/13 00:41:24;;;;;;;22.77;11.53;;;;;;;10.49;100.00;99202.09;4850065;29;20455;-63
2022/10/13 00:43:55;;;;;;;20.67;12.07;;;;;;;10.45;100.00;99212.00;4853974;29;20238;-63
2022/10/13 00:46:24;;;;;;;19.57;11.47;;;;;;;10.33;100.00;99207.84;4850268;29;20243;-63
2022/10/13 00:48:58;;;;;;;26.10;12.47;;;;;;;10.24;100.00;99221.69;4851424;29;20245;-62
2022/10/13 00:51:28;;;;;;;18.10;12.10;;;;;;;10.19;100.00;99206.41;4850167;29;20585;-63
2022/10/13 00:53:58;;;;;;;20.20;11.23;;;;;;;10.17;100.00;99206.56;4852550;29;20275;-63
2022/10/13 00:56:27;;;;;;;24.50;13.27;;;;;;;10.21;100.00;99204.50;4854688;29;20250;-63
2022/10/13 00:58:55;;;;;;;20.20;11.37;;;;;;;10.18;100.00;99200.38;4858211;29;20234;-63
2022/10/13 01:01:22;;;;;;;26.83;12.70;;;;;;;10.22;100.00;99200.13;4845849;29;20271;-63
2022/10/13 01:03:48;;;;;;;24.20;13.67;;;;;;;10.17;100.00;99198.75;4851984;29;20254;-63
2022/10/13 01:06:16;;;;;;;30.80;15.23;;;;;;;10.16;100.00;99191.88;4853102;29;20793;-63
2022/10/13 01:08:42;;;;;;;28.13;13.97;;;;;;;10.18;100.00;99194.34;4861008;29;20251;-63
2022/10/13 01:11:34;;;;;;;28.53;14.47;;;;;;;10.24;100.00;99178.13;4856094;29;20292;-63
2022/10/13 01:14:11;;;;;;;21.67;13.43;;;;;;;10.30;100.00;99184.63;4858749;29;20278;-63
2022/10/13 01:16:45;;;;;;;29.67;14.30;;;;;;;10.33;100.00;99184.34;4853766;29;20379;-63
2022/10/13 01:19:30;;;;;;;21.97;12.77;;;;;;;10.36;100.00;99189.31;4858285;29;20241;-63
2022/10/13 01:22:08;;;;;;;24.10;11.67;;;;;;;10.38;100.00;99189.16;4855915;29;20238;-63
2022/10/13 01:24:44;;;;;;;27.20;12.03;;;;;;;10.40;100.00;99182.88;4855786;29;20294;-63
2022/10/13 01:27:50;;;;;;;19.70;11.53;;;;;;;10.45;100.00;99185.91;4853706;29;20243;-63
2022/10/13 01:30:19;;;;;;;18.77;10.30;;;;;;;10.52;100.00;99177.53;4850241;29;20294;-63
2022/10/13 01:32:58;;;;;;;16.57;11.47;;;;;;;10.59;100.00;99178.63;4846494;29;20274;-63
2022/10/13 01:35:33;;;;;;;19.73;11.03;;;;;;;10.67;100.00;99172.72;4854145;29;20794;-63
2022/10/13 01:38:07;;;;;;;20.67;11.17;;;;;;;10.73;100.00;99174.78;4854282;29;20302;-63
2022/10/13 01:40:41;;;;;;;21.50;11.23;;;;;;;10.74;100.00;99171.19;4853927;29;20255;-63
2022/10/13 01:43:11;;;;;;;21.17;10.93;;;;;;;10.82;100.00;99173.09;4857657;29;20288;-63
2022/10/13 01:45:46;;;;;;;17.20;10.67;;;;;;;10.85;100.00;99175.44;4849011;29;20250;-63
2022/10/13 01:48:14;;;;;;;24.23;10.77;;;;;;;10.83;100.00;99169.53;4845425;29;20235;-63
2022/10/13 01:50:42;;;;;;;18.33;10.20;;;;;;;10.84;100.00;99171.19;4851586;29;20658;-63
2022/10/13 01:53:11;;;;;;;23.60;11.43;;;;;;;10.85;100.00;99176.28;4850007;29;20293;-63
2022/10/13 01:55:48;;;;;;;19.97;11.37;;;;;;;10.87;100.00;99183.97;4854139;29;20302;-63
2022/10/13 01:58:15;;;;;;;25.23;12.13;;;;;;;10.87;100.00;99190.03;4848448;29;20242;-63
2022/10/13 02:00:57;;;;;;;27.60;11.70;;;;;;;10.88;100.00;99189.06;4854761;29;20283;-63
2022/10/13 02:03:33;;;;;;;22.00;10.57;;;;;;;10.97;100.00;99194.41;4843462;29;20236;-63
2022/10/13 02:06:05;;;;;;;20.03;11.70;;;;;;;10.98;100.00;99199.50;4850803;29;20313;-63
2022/10/13 02:08:42;;;;;;;31.77;14.10;;;;;;;11.01;100.00;99196.59;4851080;29;20256;-63
2022/10/13 02:11:14;;;;;;;26.63;13.93;;;;;;;11.06;100.00;99202.22;4848264;29;20244;-63
2022/10/13 02:13:45;;;;;;;26.47;14.53;;;;;;;11.12;100.00;99200.03;4851874;29;20234;-63
2022/10/13 02:16:22;;;;;;;31.50;16.23;;;;;;;11.14;100.00;99191.06;4852939;29;20235;-63
2022/10/13 02:18:51;;;;;;;34.47;15.63;;;;;;;11.16;100.00;99199.59;4852830;29;20219;-63
2022/10/13 02:21:17;;;;;;;31.80;16.33;;;;;;;11.14;100.00;99195.47;4869258;29;20322;-63
2022/10/13 02:23:45;;;;;;;26.97;14.67;;;;;;;11.14;100.00;99198.09;4857710;29;20312;-63
2022/10/13 02:26:13;;;;;;;31.33;16.97;;;;;;;11.13;100.00;99197.25;4849992;29;20370;-63
2022/10/13 02:28:39;;;;;;;29.77;16.07;;;;;;;11.16;100.00;99202.19;4851483;29;20244;-63
2022/10/13 02:31:08;;;;;;;27.57;16.73;;;;;;;11.17;100.00;99195.22;4852195;29;20244;-62
2022/10/13 02:33:36;;;;;;;27.77;17.17;;;;;;;11.18;100.00;99194.25;4847056;29;20234;-63
2022/10/13 02:36:03;;;;;;;25.97;15.73;;;;;;;11.19;100.00;99188.84;4849589;29;20243;-62
2022/10/13 02:38:30;;;;;;;29.70;15.70;;;;;;;11.16;100.00;99196.97;4846508;29;20292;-62
2022/10/13 02:40:57;;;;;;;33.77;15.40;;;;;;;11.14;100.00;99188.44;4850367;29;20599;-62
2022/10/13 02:43:23;;;;;;;25.40;15.10;;;;;;;11.14;100.00;99188.44;4853389;29;20936;-62
2022/10/13 02:45:50;;;;;;;27.93;15.70;;;;;;;11.14;100.00;99180.63;4857906;29;20269;-62
2022/10/13 02:48:16;;;;;;;24.60;15.17;;;;;;;11.15;100.00;99176.22;4851668;29;20247;-62
2022/10/13 02:50:45;;;;;;;29.00;15.20;;;;;;;11.16;100.00;99176.06;4857998;29;20302;-62
2022/10/13 02:53:12;;;;;;;30.87;13.70;;;;;;;11.14;100.00;99178.00;4854283;29;20648;-62
2022/10/13 02:55:38;;;;;;;29.03;16.53;;;;;;;11.14;100.00;99169.34;4854849;29;20232;-62
2022/10/13 02:58:05;;;;;;;27.07;14.13;;;;;;;11.14;100.00;99164.13;4850106;29;20287;-63
2022/10/13 03:03:22;;;;;;;26.67;13.80;;;;;;;11.15;100.00;99153.53;4848974;23;20269;-55
2022/10/13 03:05:52;;;;;;;25.50;14.80;;;;;;;11.13;100.00;99160.69;4841749;29;20741;-57
2022/10/13 03:08:20;;;;;;;30.43;15.37;;;;;;;11.07;100.00;99151.63;4839200;29;20264;-57
2022/10/13 03:10:47;;;;;;;26.70;14.70;;;;;;;11.03;100.00;99150.25;4840554;29;20996;-58
2022/10/13 03:13:13;;;;;;;26.27;13.87;;;;;;;10.95;100.00;99163.19;4838816;29;20300;-56
2022/10/13 03:15:40;;;;;;;24.33;13.30;;;;;;;10.87;100.00;99161.31;4842479;29;20243;-57
2022/10/13 03:18:08;;;;;;;26.60;12.97;;;;;;;10.78;100.00;99159.53;4842494;29;20247;-57
2022/10/13 03:20:35;;;;;;;22.97;11.47;;;;;;;10.68;100.00;99156.91;4841757;29;20622;-55
2022/10/13 03:23:03;;;;;;;19.53;10.20;;;;;;;10.57;100.00;99160.47;4845002;29;20239;-56
2022/10/13 03:25:29;;;;;;;16.50;9.73;;;;;;;10.47;100.00;99157.03;4838032;29;20250;-55
2022/10/13 03:27:56;;;;;;;24.07;10.57;;;;;;;10.37;100.00;99153.56;4838825;29;20244;-54
2022/10/13 03:30:23;;;;;;;21.40;10.57;;;;;;;10.22;100.00;99138.31;4840139;29;20308;-56
2022/10/13 03:32:49;;;;;;;24.27;11.33;;;;;;;10.14;100.00;99140.78;4846299;29;20252;-56
2022/10/13 03:35:16;;;;;;;22.83;10.67;;;;;;;10.11;100.00;99135.81;4843300;29;20242;-53
2022/10/13 03:37:43;;;;;;;21.73;10.77;;;;;;;10.04;100.00;99135.56;4851836;29;20319;-56
2022/10/13 03:40:12;;;;;;;20.93;10.90;;;;;;;9.90;100.00;99139.38;4842855;29;20372;-54
2022/10/13 03:42:39;;;;;;;20.70;10.63;;;;;;;9.81;100.00;99132.38;4845208;29;20326;-56
2022/10/13 03:45:07;;;;;;;24.40;10.47;;;;;;;9.82;100.00;99134.81;4844029;29;20646;-56
2022/10/13 03:47:36;;;;;;;19.03;10.23;;;;;;;9.79;100.00;99135.09;4843011;29;20260;-56
2022/10/13 03:50:04;;;;;;;18.73;11.10;;;;;;;9.81;100.00;99129.75;4844989;29;20599;-54
2022/10/13 03:52:30;;;;;;;24.67;11.50;;;;;;;9.75;100.00;99137.16;4840819;29;20308;-58
2022/10/13 03:54:58;;;;;;;26.47;12.40;;;;;;;9.84;100.00;99147.75;4843853;29;20230;-57
2022/10/13 03:57:25;;;;;;;23.50;10.87;;;;;;;9.84;100.00;99145.94;4842317;29;20243;-60
2022/10/13 03:59:54;;;;;;;29.37;13.03;;;;;;;9.90;100.00;99148.00;4842785;29;20243;-57
2022/10/13 04:02:21;;;;;;;30.20;13.07;;;;;;;9.95;100.00;99152.84;4842532;29;20254;-58
2022/10/13 04:04:49;;;;;;;25.13;15.87;;;;;;;10.02;100.00;99163.56;4842901;29;20237;-59
2022/10/13 04:07:16;;;;;;;22.87;12.63;;;;;;;10.03;100.00;99160.81;4841130;29;20269;-58
2022/10/13 04:09:42;;;;;;;23.87;12.70;;;;;;;10.13;100.00;99163.44;4845176;29;20545;-59
2022/10/13 04:12:09;;;;;;;21.50;11.67;;;;;;;10.25;100.00;99163.31;4840306;29;20604;-57
2022/10/13 04:14:37;;;;;;;26.73;12.37;;;;;;;10.32;100.00;99152.19;4845589;29;20598;-57
2022/10/13 04:17:08;;;;;;;22.03;13.73;;;;;;;10.38;100.00;99145.63;4847110;29;20244;-57
2022/10/13 04:19:34;;;;;;;25.40;12.80;;;;;;;10.43;100.00;99142.63;4841882;29;20729;-57
2022/10/13 04:22:05;;;;;;;23.70;12.77;;;;;;;10.47;100.00;99150.06;4845934;29;20615;-58
2022/10/13 04:24:32;;;;;;;31.90;14.83;;;;;;;10.50;100.00;99154.16;4842439;29;20239;-56
2022/10/13 04:26:58;;;;;;;25.63;14.60;;;;;;;10.52;100.00;99141.81;4846067;29;20239;-57
2022/10/13 04:29:25;;;;;;;29.07;15.30;;;;;;;10.55;100.00;99138.91;4838940;29;20318;-57
2022/10/13 04:31:53;;;;;;;27.83;15.00;;;;;;;10.52;100.00;99136.59;4842379;29;20246;-58
2022/10/13 04:34:19;;;;;;;27.70;15.00;;;;;;;10.48;100.00;99138.66;4824891;29;20238;-57
2022/10/13 04:36:46;;;;;;;24.60;13.50;;;;;;;10.45;100.00;99148.53;4840985;29;20245;-55
2022/10/13 04:39:13;;;;;;;25.23;14.53;;;;;;;10.44;100.00;99149.50;4837682;29;20266;-58
2022/10/13 04:41:40;;;;;;;24.37;14.90;;;;;;;10.30;100.00;99141.06;4842830;29;20250;-57
2022/10/13 04:44:06;;;;;;;27.03;15.43;;;;;;;10.26;100.00;99144.91;4841283;29;20287;-57
2022/10/13 04:46:33;;;;;;;27.87;15.57;;;;;;;10.21;100.00;99144.50;4842050;29;20300;-57
2022/10/13 04:49:04;;;;;;;31.03;15.97;;;;;;;10.17;100.00;99122.25;4842760;29;20239;-58
2022/10/13 04:51:32;;;;;;;27.57;15.17;;;;;;;10.12;100.00;99112.22;4841042;29;20584;-59
2022/10/13 04:54:01;;;;;;;26.47;13.77;;;;;;;10.07;100.00;99109.19;4842369;29;20238;-56
2022/10/13 04:56:29;;;;;;;28.27;15.50;;;;;;;10.13;100.00;99107.81;4843004;29;20246;-55
2022/10/13 04:59:01;;;;;;;27.27;14.03;;;;;;;10.04;100.00;99107.72;4843215;29;20247;-57
2022/10/13 05:01:27;;;;;;;23.77;13.77;;;;;;;10.01;100.00;99092.31;4842216;29;20260;-56
2022/10/13 05:03:56;;;;;;;28.10;13.63;;;;;;;9.97;100.00;99090.09;4842693;29;20699;-56
2022/10/13 05:06:26;;;;;;;32.40;15.80;;;;;;;10.01;100.00;99091.50;4838925;29;20760;-53
2022/10/13 05:08:56;;;;;;;26.30;12.83;;;;;;;10.01;100.00;99094.09;4842258;29;20745;-56
2022/10/13 05:11:24;;;;;;;30.27;13.57;;;;;;;10.00;100.00;99105.50;4838119;29;20312;-55
2022/10/13 05:13:51;;;;;;;22.00;12.83;;;;;;;9.96;100.00;99101.50;4842686;29;20317;-57
2022/10/13 05:16:19;;;;;;;21.87;12.23;;;;;;;9.94;100.00;99091.22;4840892;29;20834;-56
2022/10/13 05:18:46;;;;;;;22.40;12.53;;;;;;;9.99;100.00;99089.03;4839504;29;20644;-56
2022/10/13 05:21:14;;;;;;;26.70;12.43;;;;;;;9.97;100.00;99080.53;4843984;29;20251;-56
2022/10/13 05:23:44;;;;;;;18.40;12.67;;;;;;;9.99;100.00;99086.41;4841404;29;20240;-57
2022/10/13 05:26:12;;;;;;;25.17;13.33;;;;;;;10.00;100.00;99082.00;4839274;29;20274;-58
2022/10/13 05:28:40;;;;;;;26.97;13.60;;;;;;;10.05;100.00;99069.41;4846034;29;20248;-55
2022/10/13 05:31:10;;;;;;;28.60;14.33;;;;;;;10.08;100.00;99069.13;4845840;29;20256;-57
2022/10/13 05:33:37;;;;;;;29.50;12.63;;;;;;;10.09;100.00;99068.16;4838047;29;20235;-58
2022/10/13 05:36:06;;;;;;;26.23;12.80;;;;;;;10.09;100.00;99064.72;4839614;29;20258;-55
2022/10/13 05:38:35;;;;;;;24.67;12.13;;;;;;;10.12;100.00;99072.25;4840278;29;20696;-55
2022/10/13 05:41:05;;;;;;;23.70;12.67;;;;;;;10.19;100.00;99069.00;4841123;29;20247;-57
2022/10/13 05:43:32;;;;;;;20.27;11.20;;;;;;;10.16;100.00;99064.03;4838689;29;20290;-58
2022/10/13 05:45:59;;;;;;;20.43;10.47;;;;;;;10.15;100.00;99072.84;4843618;29;20317;-56
2022/10/13 05:48:25;;;;;;;26.80;11.30;;;;;;;10.17;100.00;99080.50;4840738;29;20244;-57
2022/10/13 05:50:52;;;;;;;25.70;11.10;;;;;;;10.30;100.00;99083.66;4842755;29;20766;-55
2022/10/13 05:53:19;;;;;;;22.33;11.23;;;;;;;10.39;100.00;99086.41;4840675;29;20292;-55
2022/10/13 05:55:45;;;;;;;18.40;10.43;;;;;;;10.37;100.00;99086.56;4841207;29;20239;-56
2022/10/13 05:58:14;;;;;;;39.57;20.93;;;;;;;10.36;100.00;99089.31;4839028;29;20236;-55
2022/10/13 06:00:42;;;;;;;39.00;21.53;;;;;;;10.38;100.00;99088.22;4840557;29;20851;-57
2022/10/13 06:03:12;;;;;;;32.53;18.17;;;;;;;10.37;100.00;99090.94;4839449;29;20268;-56
2022/10/13 06:05:46;;;;;;;25.23;14.60;;;;;;;10.37;100.00;99093.56;4841887;29;20326;-57
2022/10/13 06:08:13;;;;;;;28.10;14.33;;;;;;;10.38;100.00;99093.44;4841903;29;20239;-55
2022/10/13 06:10:40;;;;;;;22.17;13.90;;;;;;;10.42;100.00;99094.84;4841214;29;20304;-55
2022/10/13 06:13:06;;;;;;;25.40;12.97;;;;;;;10.42;100.00;99105.28;4842641;29;20319;-56
2022/10/13 06:15:34;;;;;;;28.77;17.03;;;;;;;10.42;100.00;99105.28;4837088;29;20251;-56
2022/10/13 06:18:02;;;;;;;36.90;18.57;;;;;;;10.43;100.00;99112.16;4844105;29;20715;-56
2022/10/13 06:20:28;;;;;;;35.23;20.60;;;;;;;10.40;100.00;99109.81;4837298;29;22608;-55
2022/10/13 06:22:55;;;;;;;33.43;19.33;;;;;;;10.45;100.00;99110.22;4839194;29;20246;-56
2022/10/13 06:25:21;;;;;;;39.43;19.67;;;;;;;10.48;100.00;99111.72;4840654;29;20318;-55
2022/10/13 06:27:48;;;;;;;41.67;20.50;;;;;;;10.53;100.00;99108.72;4845417;29;20295;-56
2022/10/13 06:30:15;;;;;;;38.60;20.93;;;;;;;10.57;100.00;99113.50;4838841;29;20246;-57
2022/10/13 06:32:43;;;;;;;38.87;20.97;;;;;;;10.62;100.00;99110.47;4844368;29;20295;-57
2022/10/13 06:35:09;;;;;;;40.17;21.00;;;;;;;10.68;100.00;99112.50;4840557;29;20300;-57
2022/10/13 06:37:36;;;;;;;35.33;20.20;;;;;;;10.78;100.00;99115.13;4839908;29;20242;-57
2022/10/13 06:40:05;;;;;;;35.70;21.37;;;;;;;10.82;100.00;99119.09;4843008;29;20722;-57
2022/10/13 06:42:32;;;;;;;34.93;20.57;;;;;;;10.85;100.00;99126.66;4841279;29;20323;-58
2022/10/13 06:45:09;;;;;;;31.07;18.37;;;;;;;10.92;100.00;99129.53;4835851;29;20258;-57
2022/10/13 06:47:39;;;;;;;36.30;19.07;;;;;;;10.98;100.00;99126.34;4842087;29;20235;-56
2022/10/13 06:50:08;;;;;;;30.50;18.07;;;;;;;11.08;100.00;99118.50;4840045;29;20254;-59
2022/10/13 06:52:35;;;;;;;32.60;19.40;;;;;;;11.14;100.00;99110.06;4837623;29;20246;-57
2022/10/13 06:55:04;;;;;;;28.10;18.57;;;;;;;11.21;100.00;99110.34;4837264;29;20239;-56
2022/10/13 06:57:31;;;;;;;35.40;19.83;;;;;;;11.20;100.00;99109.50;4838675;29;20306;-55
2022/10/13 06:59:58;;;;;;;42.20;22.30;;;;;;;11.20;100.00;99098.25;4842831;29;20878;-56
2022/10/13 07:02:25;;;;;;;32.03;20.57;;;;;;;11.25;100.00;99096.03;4838116;29;20728;-56
2022/10/13 07:04:51;;;;;;;36.97;20.70;;;;;;;11.34;100.00;99100.38;4840520;29;20242;-56
2022/10/13 07:07:19;;;;;;;40.23;19.47;;;;;;;11.43;100.00;99092.66;4842126;29;20251;-56
2022/10/13 07:09:47;;;;;;;31.97;19.03;;;;;;;11.52;100.00;99095.22;4844312;29;20239;-55
2022/10/13 07:12:14;;;;;;;32.33;17.47;;;;;;;11.64;100.00;99095.00;4840377;29;20252;-55
2022/10/13 07:14:41;;;;;;;32.90;19.00;;;;;;;11.75;100.00;99097.44;4848220;29;20333;-57
2022/10/13 07:17:07;;;;;;;28.40;17.63;;;;;;;11.84;100.00;99102.75;4846929;29;20661;-56
2022/10/13 07:19:34;;;;;;;31.17;17.57;;;;;;;11.95;100.00;99097.31;4842519;29;20267;-54
2022/10/13 07:22:01;;;;;;;31.63;16.90;;;;;;;12.09;100.00;99101.22;4844321;29;20247;-56
2022/10/13 07:24:29;;;;;;;25.10;15.57;;;;;;;12.17;100.00;99085.59;4843817;29;20249;-57
2022/10/13 07:26:55;;;;;;;26.67;15.60;;;;;;;12.32;100.00;99085.09;4845479;29;20643;-56
2022/10/13 07:29:22;;;;;;;27.80;15.20;;;;;;;12.44;100.00;99096.97;4842592;29;20244;-57
2022/10/13 07:31:48;;;;;;;30.10;15.67;;;;;;;12.48;100.00;99092.25;4843926;29;20242;-56
2022/10/13 07:34:16;;;;;;;24.80;15.00;;;;;;;12.61;100.00;99091.88;4842716;29;20736;-57
2022/10/13 07:36:42;;;;;;;29.47;14.97;;;;;;;12.76;100.00;99090.31;4844491;29;20248;-56
2022/10/13 07:39:09;;;;;;;24.13;14.53;;;;;;;12.85;100.00;99089.38;4843081;29;20232;-55
2022/10/13 07:41:37;;;;;;;25.60;14.50;;;;;;;12.91;100.00;99089.75;4845166;29;20655;-57
2022/10/13 07:44:04;;;;;;;28.17;14.90;;;;;;;13.07;100.00;99091.66;4842587;29;20227;-58
2022/10/13 07:46:31;;;;;;;23.77;14.07;;;;;;;13.14;100.00;99092.69;4840458;29;20300;-57
2022/10/13 07:48:58;;;;;;;25.70;13.80;;;;;;;13.24;100.00;99088.16;4843115;29;20240;-55
2022/10/13 07:51:24;;;;;;;22.40;14.50;;;;;;;13.35;100.00;99091.44;4839766;29;20245;-57
2022/10/13 07:53:51;;;;;;;23.93;13.93;;;;;;;13.42;100.00;99090.72;4844953;29;20367;-57
2022/10/13 07:56:18;;;;;;;22.80;13.13;;;;;;;13.52;100.00;99093.19;4843207;29;20272;-55
2022/10/13 07:58:47;;;;;;;26.13;13.17;;;;;;;13.51;100.00;99085.50;4843623;29;20663;-57
2022/10/13 08:01:16;;;;;;;27.53;16.30;;;;;;;13.23;100.00;99090.91;4840573;29;20241;-57
2022/10/13 08:03:44;;;;;;;25.60;16.80;;;;;;;13.21;100.00;99087.63;4844541;29;20681;-57
2022/10/13 08:06:16;;;;;;;25.77;15.87;;;;;;;13.42;100.00;99090.72;4841196;29;20321;-58
2022/10/13 08:08:43;;;;;;;33.77;17.03;;;;;;;13.54;100.00;99086.00;4842143;29;20248;-57
2022/10/13 08:11:14;;;;;;;33.13;17.87;;;;;;;13.43;100.00;99087.09;4842301;29;20241;-58
2022/10/13 08:13:40;;;;;;;36.30;19.33;;;;;;;13.41;100.00;99090.81;4843785;29;20632;-58
2022/10/13 08:16:17;;;;;;;31.40;18.90;;;;;;;13.57;100.00;99088.28;4840247;29;20251;-57
2022/10/13 08:18:44;;;;;;;35.03;19.03;;;;;;;13.49;100.00;99090.06;4845091;29;20252;-57
2022/10/13 08:21:16;;;;;;;37.20;19.17;;;;;;;13.48;100.00;99085.81;4838590;29;20238;-57
2022/10/13 08:23:43;;;;;;;32.17;17.53;;;;;;;13.65;100.00;99089.31;4844632;29;20312;-56
2022/10/13 08:26:16;;;;;;;29.07;16.67;;;;;;;13.67;100.00;99082.09;4843758;29;20262;-57
2022/10/13 08:28:42;;;;;;;29.40;17.13;;;;;;;13.72;100.00;99082.44;4843955;29;20233;-57
2022/10/13 08:31:12;;;;;;;25.30;16.83;;;;;;;13.80;100.00;99082.47;4840508;29;20373;-58
2022/10/13 08:33:40;;;;;;;37.13;16.37;;;;;;;13.79;100.00;99083.44;4845283;29;20233;-58
2022/10/13 08:36:09;;;;;;;28.10;17.00;;;;;;;13.88;100.00;99079.84;4840511;29;20235;-57
2022/10/13 08:38:36;;;;;;;27.77;17.17;;;;;;;14.06;100.00;99085.94;4844697;29;20789;-57
2022/10/13 08:41:16;;;;;;;29.83;16.27;;;;;;;14.26;100.00;99084.66;4846127;29;20320;-56
2022/10/13 08:43:48;;;;;;;25.37;15.90;;;;;;;14.39;100.00;99083.34;4840721;29;20244;-58
2022/10/13 08:46:19;;;;;;;32.43;17.33;;;;;;;14.50;100.00;99083.03;4838133;29;20241;-58
2022/10/13 08:48:47;;;;;;;27.17;16.03;;;;;;;14.64;100.00;99088.59;4844082;29;20317;-59
2022/10/13 08:51:15;;;;;;;29.30;16.50;;;;;;;14.61;100.00;99081.84;4839210;29;20288;-58
2022/10/13 08:53:45;;;;;;;27.63;15.60;;;;;;;14.55;100.00;99082.50;4844436;29;20290;-59
2022/10/13 08:56:19;;;;;;;26.47;16.30;;;;;;;14.34;99.73;99085.66;4837465;29;20233;-58
2022/10/13 08:58:48;;;;;;;28.60;16.33;;;;;;;14.25;100.00;99090.91;4845110;29;20264;-60
2022/10/13 09:01:18;;;;;;;27.37;16.57;;;;;;;13.86;100.00;99088.84;4839599;29;20240;-57
2022/10/13 09:03:52;;;;;;;30.27;19.27;;;;;;;13.94;100.00;99088.88;4840898;29;20236;-58
2022/10/13 09:06:27;;;;;;;24.47;16.43;;;;;;;14.05;100.00;99089.56;4840097;29;20297;-57
2022/10/13 09:08:56;;;;;;;27.30;17.30;;;;;;;14.24;100.00;99086.63;4843096;29;20236;-58
2022/10/13 09:11:23;;;;;;;26.47;16.00;;;;;;;14.36;100.00;99086.31;4844154;29;20279;-56
2022/10/13 09:13:55;;;;;;;26.80;16.73;;;;;;;14.09;100.00;99099.59;4840642;29;20253;-57
2022/10/13 09:16:27;;;;;;;34.37;16.17;;;;;;;14.07;100.00;99092.84;4842013;29;20234;-57
2022/10/13 09:19:12;;;;;;;27.33;16.93;;;;;;;13.94;100.00;99088.88;4844315;29;20644;-57
2022/10/13 09:21:39;;;;;;;26.73;16.27;;;;;;;14.15;100.00;99095.47;4841692;29;20771;-56
2022/10/13 09:24:07;;;;;;;34.07;15.87;;;;;;;14.11;100.00;99099.41;4844129;29;20253;-57
2022/10/13 09:26:40;;;;;;;26.57;16.93;;;;;;;14.08;100.00;99094.47;4839371;29;20241;-58
2022/10/13 09:29:15;;;;;;;25.80;16.03;;;;;;;14.19;100.00;99098.63;4839319;29;20266;-57
2022/10/13 09:31:42;;;;;;;29.97;15.73;;;;;;;14.23;100.00;99095.47;4838222;29;20928;-57
2022/10/13 09:34:22;;;;;;;25.43;15.57;;;;;;;14.25;100.00;99096.13;4838871;29;20238;-58
2022/10/13 09:36:57;;;;;;;28.60;15.53;;;;;;;14.39;100.00;99096.47;4842199;29;20243;-57
2022/10/13 09:39:23;;;;;;;29.27;16.03;;;;;;;14.55;100.00;99096.47;4839372;29;20244;-57
2022/10/13 09:41:50;;;;;;;32.90;17.73;;;;;;;14.45;100.00;99078.25;4841267;29;20305;-57
2022/10/13 09:44:19;;;;;;;24.83;15.67;;;;;;;14.79;99.08;99076.47;4839819;29;20297;-58
2022/10/13 09:46:50;;;;;;;25.10;16.10;;;;;;;14.82;96.95;99081.38;4841489;29;20608;-57
2022/10/13 09:49:34;;;;;;;22.67;14.37;;;;;;;14.96;97.17;99082.50;4839060;29;20236;-56
2022/10/13 09:52:07;;;;;;;28.30;15.93;;;;;;;15.09;97.92;99084.59;4841502;29;20249;-56
2022/10/13 09:54:42;;;;;;;24.73;15.03;;;;;;;15.39;97.64;99084.81;4837721;29;20230;-54
2022/10/13 09:57:17;;;;;;;28.50;14.43;;;;;;;15.56;95.19;99076.84;4844635;29;20244;-57
2022/10/13 09:59:48;;;;;;;30.60;15.93;;;;;;;15.61;94.39;99077.16;4838610;29;20245;-58
2022/10/13 10:02:28;;;;;;;22.10;12.40;;;;;;;15.78;92.65;99080.50;4838901;29;20298;-58
2022/10/13 10:05:00;;;;;;;26.70;14.87;;;;;;;15.69;91.80;99063.13;4841929;29;20246;-57
2022/10/13 10:07:31;;;;;;;21.50;14.83;;;;;;;15.85;91.75;99070.94;4840544;29;20240;-58
2022/10/13 10:10:01;;;;;;;25.10;15.67;;;;;;;15.92;91.73;99074.53;4839894;29;20295;-59
2022/10/13 10:12:31;;;;;;;26.70;14.40;;;;;;;16.11;91.49;99071.59;4836984;29;20351;-58
2022/10/13 10:14:57;;;;;;;29.60;16.30;;;;;;;16.10;90.74;99073.44;4842817;29;20701;-59
2022/10/13 10:17:30;;;;;;;21.63;13.97;;;;;;;16.26;91.25;99072.47;4836169;29;20726;-59
2022/10/13 10:20:12;;;;;;;24.60;14.90;;;;;;;16.35;88.45;99081.16;4842874;29;20324;-59
2022/10/13 10:22:47;;;;;;;30.60;15.23;;;;;;;16.06;90.49;99080.03;4839230;29;20332;-58
2022/10/13 10:25:26;;;;;;;22.77;14.90;;;;;;;15.88;89.79;99078.50;4840327;29;20274;-59
2022/10/13 10:28:10;;;;;;;27.63;14.67;;;;;;;15.94;92.45;99077.81;4841040;29;20243;-58
2022/10/13 10:30:44;;;;;;;23.60;13.83;;;;;;;16.19;92.03;99089.97;4837737;29;20262;-59
2022/10/13 10:33:17;;;;;;;23.17;14.97;;;;;;;16.27;89.22;99078.59;4838697;29;20616;-59
2022/10/13 10:35:57;;;;;;;25.83;15.13;;;;;;;16.05;89.44;99083.69;4843928;29;20235;-57
2022/10/13 10:38:35;;;;;;;27.40;15.90;;;;;;;15.57;94.36;99073.22;4838609;29;20235;-58
2022/10/13 10:41:13;;;;;;;27.47;16.60;;;;;;;15.69;94.06;99077.13;4845354;29;20241;-57
2022/10/13 10:43:49;;;;;;;30.33;16.13;;;;;;;15.68;93.41;99079.91;4843121;29;20250;-58
2022/10/13 10:46:22;;;;;;;31.43;18.13;;;;;;;15.57;93.54;99073.22;4844728;29;20226;-59
2022/10/13 10:48:52;;;;;;;31.80;19.27;;;;;;;15.03;97.99;99072.13;4849677;29;20249;-59
2022/10/13 10:51:29;;;;;;;28.07;17.67;;;;;;;15.21;99.59;99053.50;4846847;29;20239;-58
2022/10/13 10:54:06;;;;;;;30.73;19.10;;;;;;;15.37;99.02;99055.22;4849415;29;20235;-59
2022/10/13 10:56:37;;;;;;;32.70;17.50;;;;;;;15.78;96.90;99060.28;4843260;29;20378;-58
2022/10/13 10:59:25;;;;;;;29.37;18.00;;;;;;;15.82;94.23;99058.13;4848432;29;20241;-58
2022/10/13 11:02:02;;;;;;;35.23;19.10;;;;;;;15.70;96.08;99056.88;4845536;29;20717;-58
2022/10/13 11:04:40;;;;;;;34.43;17.67;;;;;;;16.14;94.31;99060.72;4843604;29;20243;-58
2022/10/13 11:07:13;;;;;;;29.67;17.90;;;;;;;16.43;93.31;99056.53;4849032;29;20309;-58
2022/10/13 11:10:20;;;;;;;38.57;19.13;;;;;;;16.47;91.89;99050.72;4840444;29;20247;-59
2022/10/13 11:13:20;;;;;;;31.40;16.93;;;;;;;16.84;87.92;99042.97;4847211;29;20242;-58
2022/10/13 11:15:47;;;;;;;34.43;18.77;;;;;;;16.30;90.59;99044.78;4845472;29;20248;-57
2022/10/13 11:18:51;;;;;;;32.63;20.20;;;;;;;16.38;90.81;99025.47;4844510;29;20233;-56
2022/10/13 11:21:18;;;;;;;32.67;18.90;;;;;;;16.44;90.50;99027.38;4843558;29;20238;-57
2022/10/13 11:23:48;;;;;;;33.50;20.45;;;;;;;16.64;89.32;99024.22;4845212;29;20696;-58
2022/10/13 11:26:30;;;;;;;34.97;18.77;;;;;;;16.77;88.39;99016.50;4845267;29;20239;-58
2022/10/13 11:28:58;;;;;;;28.80;18.40;;;;;;;16.55;90.10;99025.31;4846804;29;20686;-57